sensor_id;sensor_type;location;lat;lon;timestamp;pressure;altitude;pressure_sealevel;temperature;humidity
31761;BME280;18335;51.486;7.562;2023-07-02T00:01:50;99345.59;;;18.62;100.00
31761;BME280;18335;51.486;7.562;2023-07-02T00:04:17;99340.31;;;18.72;100.00
31761;BME280;18335;51.486;7.562;2023-07-02T00:06:45;99340.91;;;18.86;100.00
31761;BME280;18335;51.486;7.562;2023-07-02T00:09:12;99333.94;;;18.95;100.00
31761;BME280;18335;51.486;7.562;2023-07-02T00:11:41;99337.06;;;18.99;100.00
31761;BME280;18335;51.486;7.562;2023-07-02T00:14:09;99329.38;;;18.77;100.00
31761;BME280;18335;51.486;7.562;2023-07-02T00:16:38;99338.00;;;18.58;100.00
31761;BME280;18335;51.486;7.562;2023-07-02T00:19:05;99323.13;;;18.59;100.00
31761;BME280;18335;51.486;7.562;2023-07-02T00:21:32;99326.97;;;18.93;100.00
31761;BME280;18335;51.486;7.562;2023-07-02T00:23:59;99329.47;;;19.06;100.00
31761;BME280;18335;51.486;7.562;2023-07-02T00:26:27;99327.94;;;18.87;100.00
31761;BME280;18335;51.486;7.562;2023-07-02T00:28:56;99333.47;;;18.75;100.00
31761;BME280;18335;51.486;7.562;2023-07-02T00:31:23;99334.91;;;18.77;100.00
31761;BME280;18335;51.486;7.562;2023-07-02T00:33:50;99328.84;;;19.15;100.00
31761;BME280;18335;51.486;7.562;2023-07-02T00:36:17;99331.09;;;19.30;100.00
31761;BME280;18335;51.486;7.562;2023-07-02T00:38:45;99334.78;;;18.96;100.00
31761;BME280;18335;51.486;7.562;2023-07-02T00:41:12;99329.75;;;18.81;100.00
31761;BME280;18335;51.486;7.562;2023-07-02T00:43:39;99334.38;;;19.15;100.00
31761;BME280;18335;51.486;7.562;2023-07-02T00:46:13;99335.75;;;18.90;100.00
31761;BME280;18335;51.486;7.562;2023-07-02T00:48:43;99327.53;;;19.06;100.00
31761;BME280;18335;51.486;7.562;2023-07-02T00:51:11;99332.34;;;19.22;100.00
31761;BME280;18335;51.486;7.562;2023-07-02T00:53:40;99328.16;;;19.08;100.00
31761;BME280;18335;51.486;7.562;2023-07-02T00:56:07;99330.22;;;19.01;100.00
31761;BME280;18335;51.486;7.562;2023-07-02T00:58:35;99333.56;;;18.92;100.00
31761;BME280;18335;51.486;7.562;2023-07-02T01:01:05;99330.94;;;18.73;100.00
31761;BME280;18335;51.486;7.562;2023-07-02T01:03:33;99326.72;;;18.94;100.00
31761;BME280;18335;51.486;7.562;2023-07-02T01:06:03;99325.66;;;18.60;100.00
31761;BME280;18335;51.486;7.562;2023-07-02T01:08:30;99318.91;;;18.56;100.00
31761;BME280;18335;51.486;7.562;2023-07-02T01:10:57;99313.50;;;18.73;100.00
31761;BME280;18335;51.486;7.562;2023-07-02T01:13:25;99335.28;;;18.69;100.00
31761;BME280;18335;51.486;7.562;2023-07-02T01:15:53;99325.88;;;18.59;100.00
31761;BME280;18335;51.486;7.562;2023-07-02T01:18:20;99321.16;;;18.48;100.00
31761;BME280;18335;51.486;7.562;2023-07-02T01:20:49;99322.81;;;18.37;100.00
31761;BME280;18335;51.486;7.562;2023-07-02T01:23:16;99320.84;;;18.56;100.00
31761;BME280;18335;51.486;7.562;2023-07-02T01:25:43;99318.63;;;18.46;100.00
31761;BME280;18335;51.486;7.562;2023-07-02T01:28:10;99319.41;;;18.53;100.00
31761;BME280;18335;51.486;7.562;2023-07-02T01:30:39;99323.72;;;18.49;100.00
31761;BME280;18335;51.486;7.562;2023-07-02T01:33:06;99327.06;;;18.40;100.00
31761;BME280;18335;51.486;7.562;2023-07-02T01:35:32;99323.66;;;18.38;100.00
31761;BME280;18335;51.486;7.562;2023-07-02T01:38:00;99316.50;;;18.48;100.00
31761;BME280;18335;51.486;7.562;2023-07-02T01:40:27;99295.81;;;18.39;100.00
31761;BME280;18335;51.486;7.562;2023-07-02T01:42:54;99285.56;;;18.16;100.00
31761;BME280;18335;51.486;7.562;2023-07-02T01:45:20;99289.31;;;18.22;100.00
31761;BME280;18335;51.486;7.562;2023-07-02T01:47:48;99288.22;;;18.11;100.00
31761;BME280;18335;51.486;7.562;2023-07-02T01:50:14;99288.38;;;17.87;100.00
31761;BME280;18335;51.486;7.562;2023-07-02T01:52:41;99285.16;;;17.90;100.00
31761;BME280;18335;51.486;7.562;2023-07-02T01:55:09;99292.66;;;18.01;100.00
31761;BME280;18335;51.486;7.562;2023-07-02T01:57:36;99295.94;;;17.80;100.00
31761;BME280;18335;51.486;7.562;2023-07-02T02:00:04;99291.78;;;17.89;100.00
31761;BME280;18335;51.486;7.562;2023-07-02T02:02:41;99282.00;;;17.75;100.00
31761;BME280;18335;51.486;7.562;2023-07-02T02:05:08;99289.34;;;17.92;100.00
31761;BME280;18335;51.486;7.562;2023-07-02T02:07:35;99293.88;;;17.75;100.00
31761;BME280;18335;51.486;7.562;2023-07-02T02:10:02;99327.91;;;17.99;100.00
31761;BME280;18335;51.486;7.562;2023-07-02T02:12:31;99335.88;;;18.60;100.00
31761;BME280;18335;51.486;7.562;2023-07-02T02:14:57;99337.41;;;18.67;100.00
31761;BME280;18335;51.486;7.562;2023-07-02T02:17:24;99344.28;;;18.76;100.00
31761;BME280;18335;51.486;7.562;2023-07-02T02:19:51;99348.16;;;18.34;100.00
31761;BME280;18335;51.486;7.562;2023-07-02T02:22:17;99349.47;;;18.32;100.00
31761;BME280;18335;51.486;7.562;2023-07-02T02:24:44;99352.59;;;18.35;100.00
31761;BME280;18335;51.486;7.562;2023-07-02T02:27:11;99347.53;;;18.20;100.00
31761;BME280;18335;51.486;7.562;2023-07-02T02:29:39;99346.41;;;18.10;100.00
31761;BME280;18335;51.486;7.562;2023-07-02T02:32:06;99345.81;;;18.08;100.00
31761;BME280;18335;51.486;7.562;2023-07-02T02:34:33;99349.25;;;17.92;100.00
31761;BME280;18335;51.486;7.562;2023-07-02T02:37:00;99342.00;;;17.79;100.00
31761;BME280;18335;51.486;7.562;2023-07-02T02:39:27;99340.72;;;17.63;100.00
31761;BME280;18335;51.486;7.562;2023-07-02T02:41:54;99348.22;;;17.75;100.00
31761;BME280;18335;51.486;7.562;2023-07-02T02:44:21;99350.00;;;17.69;100.00
31761;BME280;18335;51.486;7.562;2023-07-02T02:46:49;99353.53;;;17.58;100.00
31761;BME280;18335;51.486;7.562;2023-07-02T02:49:16;99341.63;;;17.76;100.00
31761;BME280;18335;51.486;7.562;2023-07-02T02:51:42;99347.66;;;17.84;100.00
31761;BME280;18335;51.486;7.562;2023-07-02T02:54:09;99351.22;;;17.73;100.00
31761;BME280;18335;51.486;7.562;2023-07-02T02:56:36;99351.34;;;17.78;100.00
31761;BME280;18335;51.486;7.562;2023-07-02T02:59:03;99347.84;;;18.01;100.00
31761;BME280;18335;51.486;7.562;2023-07-02T03:01:29;99345.66;;;17.61;100.00
31761;BME280;18335;51.486;7.562;2023-07-02T03:03:59;99347.28;;;17.81;100.00
31761;BME280;18335;51.486;7.562;2023-07-02T03:06:26;99347.47;;;17.67;100.00
31761;BME280;18335;51.486;7.562;2023-07-02T03:08:53;99345.78;;;17.66;100.00
31761;BME280;18335;51.486;7.562;2023-07-02T03:11:19;99349.44;;;17.79;100.00
31761;BME280;18335;51.486;7.562;2023-07-02T03:13:46;99339.47;;;17.78;100.00
31761;BME280;18335;51.486;7.562;2023-07-02T03:16:14;99340.03;;;17.98;100.00
31761;BME280;18335;51.486;7.562;2023-07-02T03:18:40;99348.38;;;18.21;100.00
31761;BME280;18335;51.486;7.562;2023-07-02T03:21:08;99351.00;;;18.16;100.00
31761;BME280;18335;51.486;7.562;2023-07-02T03:23:36;99349.69;;;18.07;100.00
31761;BME280;18335;51.486;7.562;2023-07-02T03:26:03;99354.34;;;17.77;100.00
31761;BME280;18335;51.486;7.562;2023-07-02T03:28:30;99356.72;;;18.44;100.00
31761;BME280;18335;51.486;7.562;2023-07-02T03:30:56;99356.59;;;18.39;100.00
31761;BME280;18335;51.486;7.562;2023-07-02T03:33:23;99365.22;;;18.01;100.00
31761;BME280;18335;51.486;7.562;2023-07-02T03:35:50;99361.31;;;18.09;100.00
31761;BME280;18335;51.486;7.562;2023-07-02T03:38:18;99363.19;;;17.97;100.00
31761;BME280;18335;51.486;7.562;2023-07-02T03:40:46;99367.38;;;18.29;100.00
31761;BME280;18335;51.486;7.562;2023-07-02T03:43:12;99369.34;;;18.10;100.00
31761;BME280;18335;51.486;7.562;2023-07-02T03:45:39;99365.34;;;18.24;100.00
31761;BME280;18335;51.486;7.562;2023-07-02T03:48:06;99385.56;;;18.07;100.00
31761;BME280;18335;51.486;7.562;2023-07-02T03:50:32;99380.09;;;18.30;100.00
31761;BME280;18335;51.486;7.562;2023-07-02T03:52:59;99383.47;;;18.32;100.00
31761;BME280;18335;51.486;7.562;2023-07-02T03:55:27;99380.56;;;18.27;100.00
31761;BME280;18335;51.486;7.562;2023-07-02T03:57:54;99396.94;;;18.10;100.00
31761;BME280;18335;51.486;7.562;2023-07-02T04:00:21;99402.16;;;18.18;100.00
31761;BME280;18335;51.486;7.562;2023-07-02T04:02:48;99407.00;;;18.35;100.00
31761;BME280;18335;51.486;7.562;2023-07-02T04:05:15;99403.28;;;18.29;100.00
31761;BME280;18335;51.486;7.562;2023-07-02T04:07:41;99406.97;;;17.93;100.00
31761;BME280;18335;51.486;7.562;2023-07-02T04:10:08;99406.50;;;18.26;100.00
31761;BME280;18335;51.486;7.562;2023-07-02T04:12:37;99410.59;;;17.94;100.00
31761;BME280;18335;51.486;7.562;2023-07-02T04:15:05;99402.91;;;17.96;100.00
31761;BME280;18335;51.486;7.562;2023-07-02T04:17:32;99412.22;;;18.13;100.00
31761;BME280;18335;51.486;7.562;2023-07-02T04:20:00;99414.19;;;17.94;100.00
31761;BME280;18335;51.486;7.562;2023-07-02T04:22:28;99418.56;;;17.84;100.00
31761;BME280;18335;51.486;7.562;2023-07-02T04:24:56;99413.53;;;18.10;100.00
31761;BME280;18335;51.486;7.562;2023-07-02T04:27:23;99420.69;;;18.00;100.00
31761;BME280;18335;51.486;7.562;2023-07-02T04:29:51;99425.00;;;17.78;100.00
31761;BME280;18335;51.486;7.562;2023-07-02T04:32:17;99427.00;;;17.89;100.00
31761;BME280;18335;51.486;7.562;2023-07-02T04:34:44;99431.44;;;17.72;100.00
31761;BME280;18335;51.486;7.562;2023-07-02T04:37:11;99425.03;;;18.37;100.00
31761;BME280;18335;51.486;7.562;2023-07-02T04:39:37;99421.28;;;18.73;100.00
31761;BME280;18335;51.486;7.562;2023-07-02T04:42:05;99421.94;;;19.10;100.00
31761;BME280;18335;51.486;7.562;2023-07-02T04:44:32;99437.19;;;19.01;100.00
31761;BME280;18335;51.486;7.562;2023-07-02T04:47:00;99437.84;;;18.61;100.00
31761;BME280;18335;51.486;7.562;2023-07-02T04:49:27;99439.97;;;18.48;100.00
31761;BME280;18335;51.486;7.562;2023-07-02T04:51:54;99432.50;;;18.90;100.00
31761;BME280;18335;51.486;7.562;2023-07-02T04:54:21;99434.53;;;18.83;100.00
31761;BME280;18335;51.486;7.562;2023-07-02T04:56:48;99433.66;;;18.29;100.00
31761;BME280;18335;51.486;7.562;2023-07-02T04:59:15;99448.00;;;19.37;100.00
31761;BME280;18335;51.486;7.562;2023-07-02T05:01:42;99449.34;;;19.23;100.00
31761;BME280;18335;51.486;7.562;2023-07-02T05:04:11;99445.84;;;19.16;100.00
31761;BME280;18335;51.486;7.562;2023-07-02T05:06:38;99447.78;;;19.04;100.00
31761;BME280;18335;51.486;7.562;2023-07-02T05:09:05;99447.50;;;18.94;100.00
31761;BME280;18335;51.486;7.562;2023-07-02T05:11:32;99446.28;;;18.66;100.00
31761;BME280;18335;51.486;7.562;2023-07-02T05:13:59;99447.50;;;18.11;100.00
31761;BME280;18335;51.486;7.562;2023-07-02T05:16:26;99452.84;;;18.54;100.00
31761;BME280;18335;51.486;7.562;2023-07-02T05:18:53;99457.28;;;18.25;100.00
31761;BME280;18335;51.486;7.562;2023-07-02T05:21:21;99454.53;;;18.55;100.00
31761;BME280;18335;51.486;7.562;2023-07-02T05:23:48;99461.84;;;18.49;100.00
31761;BME280;18335;51.486;7.562;2023-07-02T05:26:15;99464.81;;;18.48;100.00
31761;BME280;18335;51.486;7.562;2023-07-02T05:28:42;99470.63;;;18.28;100.00
31761;BME280;18335;51.486;7.562;2023-07-02T05:31:09;99463.44;;;18.27;100.00
31761;BME280;18335;51.486;7.562;2023-07-02T05:33:36;99469.97;;;18.14;100.00
31761;BME280;18335;51.486;7.562;2023-07-02T05:36:04;99471.28;;;18.12;100.00
31761;BME280;18335;51.486;7.562;2023-07-02T05:38:32;99468.41;;;18.37;100.00
31761;BME280;18335;51.486;7.562;2023-07-02T05:40:59;99470.91;;;18.38;100.00
31761;BME280;18335;51.486;7.562;2023-07-02T05:43:26;99477.75;;;18.36;100.00
31761;BME280;18335;51.486;7.562;2023-07-02T05:45:53;99482.84;;;18.20;100.00
31761;BME280;18335;51.486;7.562;2023-07-02T05:48:20;99476.81;;;18.42;100.00
31761;BME280;18335;51.486;7.562;2023-07-02T05:50:47;99480.63;;;18.11;100.00
31761;BME280;18335;51.486;7.562;2023-07-02T05:53:13;99483.94;;;18.49;100.00
31761;BME280;18335;51.486;7.562;2023-07-02T05:55:42;99486.31;;;18.75;100.00
31761;BME280;18335;51.486;7.562;2023-07-02T05:58:08;99494.56;;;18.64;100.00
31761;BME280;18335;51.486;7.562;2023-07-02T06:00:35;99489.59;;;18.96;100.00
31761;BME280;18335;51.486;7.562;2023-07-02T06:03:02;99494.72;;;18.69;100.00
31761;BME280;18335;51.486;7.562;2023-07-02T06:05:29;99491.88;;;18.87;100.00
31761;BME280;18335;51.486;7.562;2023-07-02T06:07:56;99496.69;;;19.03;100.00
31761;BME280;18335;51.486;7.562;2023-07-02T06:10:23;99501.97;;;18.93;100.00
31761;BME280;18335;51.486;7.562;2023-07-02T06:12:51;99498.50;;;19.21;100.00
31761;BME280;18335;51.486;7.562;2023-07-02T06:15:18;99497.81;;;19.14;100.00
31761;BME280;18335;51.486;7.562;2023-07-02T06:17:44;99502.59;;;18.95;100.00
31761;BME280;18335;51.486;7.562;2023-07-02T06:20:12;99511.06;;;19.58;100.00
31761;BME280;18335;51.486;7.562;2023-07-02T06:22:39;99504.56;;;19.64;100.00
31761;BME280;18335;51.486;7.562;2023-07-02T06:25:08;99502.75;;;19.35;100.00
31761;BME280;18335;51.486;7.562;2023-07-02T06:27:34;99510.47;;;19.79;100.00
31761;BME280;18335;51.486;7.562;2023-07-02T06:30:03;99506.63;;;19.57;100.00
31761;BME280;18335;51.486;7.562;2023-07-02T06:32:30;99509.28;;;19.41;100.00
31761;BME280;18335;51.486;7.562;2023-07-02T06:34:58;99508.50;;;19.33;100.00
31761;BME280;18335;51.486;7.562;2023-07-02T06:37:24;99512.50;;;18.73;100.00
31761;BME280;18335;51.486;7.562;2023-07-02T06:39:51;99512.78;;;18.83;100.00
31761;BME280;18335;51.486;7.562;2023-07-02T06:42:18;99510.72;;;19.43;100.00
31761;BME280;18335;51.486;7.562;2023-07-02T06:44:45;99502.91;;;19.40;100.00
31761;BME280;18335;51.486;7.562;2023-07-02T06:47:13;99517.88;;;19.32;100.00
31761;BME280;18335;51.486;7.562;2023-07-02T06:49:40;99522.50;;;19.73;100.00
31761;BME280;18335;51.486;7.562;2023-07-02T06:52:06;99521.03;;;19.94;100.00
31761;BME280;18335;51.486;7.562;2023-07-02T06:54:33;99525.47;;;20.07;100.00
31761;BME280;18335;51.486;7.562;2023-07-02T06:57:00;99528.81;;;20.09;100.00
31761;BME280;18335;51.486;7.562;2023-07-02T06:59:27;99521.91;;;20.23;100.00
31761;BME280;18335;51.486;7.562;2023-07-02T07:01:54;99518.19;;;20.29;100.00
31761;BME280;18335;51.486;7.562;2023-07-02T07:04:22;99527.59;;;20.28;100.00
31761;BME280;18335;51.486;7.562;2023-07-02T07:06:49;99530.03;;;20.13;100.00
31761;BME280;18335;51.486;7.562;2023-07-02T07:09:16;99529.88;;;20.59;100.00
31761;BME280;18335;51.486;7.562;2023-07-02T07:11:43;99520.50;;;20.77;100.00
31761;BME280;18335;51.486;7.562;2023-07-02T07:14:10;99526.84;;;20.89;100.00
31761;BME280;18335;51.486;7.562;2023-07-02T07:16:37;99522.75;;;21.41;100.00
31761;BME280;18335;51.486;7.562;2023-07-02T07:19:04;99523.84;;;20.90;100.00
31761;BME280;18335;51.486;7.562;2023-07-02T07:21:34;99525.28;;;21.10;100.00
31761;BME280;18335;51.486;7.562;2023-07-02T07:24:00;99535.81;;;20.79;100.00
31761;BME280;18335;51.486;7.562;2023-07-02T07:26:27;99537.38;;;21.04;100.00
31761;BME280;18335;51.486;7.562;2023-07-02T07:28:54;99530.31;;;20.96;100.00
31761;BME280;18335;51.486;7.562;2023-07-02T07:31:21;99531.59;;;20.77;100.00
31761;BME280;18335;51.486;7.562;2023-07-02T07:33:48;99531.81;;;21.04;100.00
31761;BME280;18335;51.486;7.562;2023-07-02T07:36:15;99534.84;;;21.02;100.00
31761;BME280;18335;51.486;7.562;2023-07-02T07:38:44;99536.34;;;20.93;100.00
31761;BME280;18335;51.486;7.562;2023-07-02T07:41:11;99545.41;;;21.50;100.00
31761;BME280;18335;51.486;7.562;2023-07-02T07:43:38;99544.06;;;21.36;100.00
31761;BME280;18335;51.486;7.562;2023-07-02T07:46:04;99535.63;;;20.69;100.00
31761;BME280;18335;51.486;7.562;2023-07-02T07:48:31;99537.09;;;21.17;100.00
31761;BME280;18335;51.486;7.562;2023-07-02T07:50:58;99539.75;;;21.12;100.00
31761;BME280;18335;51.486;7.562;2023-07-02T07:53:25;99548.28;;;20.65;100.00
31761;BME280;18335;51.486;7.562;2023-07-02T07:55:53;99555.00;;;20.97;100.00
31761;BME280;18335;51.486;7.562;2023-07-02T07:58:20;99547.75;;;20.80;100.00
31761;BME280;18335;51.486;7.562;2023-07-02T08:00:47;99549.66;;;21.08;100.00
31761;BME280;18335;51.486;7.562;2023-07-02T08:03:14;99546.41;;;20.82;100.00
31761;BME280;18335;51.486;7.562;2023-07-02T08:05:40;99548.69;;;21.14;100.00
31761;BME280;18335;51.486;7.562;2023-07-02T08:08:07;99556.13;;;20.68;100.00
31761;BME280;18335;51.486;7.562;2023-07-02T08:10:34;99561.75;;;20.45;100.00
31761;BME280;18335;51.486;7.562;2023-07-02T08:13:02;99560.28;;;20.54;100.00
31761;BME280;18335;51.486;7.562;2023-07-02T08:15:29;99566.66;;;20.55;100.00
31761;BME280;18335;51.486;7.562;2023-07-02T08:17:55;99567.50;;;20.83;100.00
31761;BME280;18335;51.486;7.562;2023-07-02T08:20:24;99560.69;;;20.91;100.00
31761;BME280;18335;51.486;7.562;2023-07-02T08:22:51;99564.75;;;21.00;100.00
31761;BME280;18335;51.486;7.562;2023-07-02T08:25:18;99568.19;;;21.69;100.00
31761;BME280;18335;51.486;7.562;2023-07-02T08:27:47;99562.06;;;21.50;100.00
31761;BME280;18335;51.486;7.562;2023-07-02T08:30:15;99565.41;;;21.19;100.00
31761;BME280;18335;51.486;7.562;2023-07-02T08:32:42;99574.44;;;21.26;100.00
31761;BME280;18335;51.486;7.562;2023-07-02T08:35:08;99582.41;;;21.39;100.00
31761;BME280;18335;51.486;7.562;2023-07-02T08:37:35;99577.38;;;21.08;100.00
31761;BME280;18335;51.486;7.562;2023-07-02T08:40:02;99585.63;;;21.03;100.00
31761;BME280;18335;51.486;7.562;2023-07-02T08:42:31;99592.16;;;20.96;100.00
31761;BME280;18335;51.486;7.562;2023-07-02T08:44:59;99588.00;;;20.82;100.00
31761;BME280;18335;51.486;7.562;2023-07-02T08:47:27;99594.19;;;21.29;100.00
31761;BME280;18335;51.486;7.562;2023-07-02T08:49:54;99588.13;;;21.82;100.00
31761;BME280;18335;51.486;7.562;2023-07-02T08:52:21;99598.72;;;20.90;100.00
31761;BME280;18335;51.486;7.562;2023-07-02T08:54:48;99595.94;;;21.19;100.00
31761;BME280;18335;51.486;7.562;2023-07-02T08:57:15;99590.22;;;20.69;100.00
31761;BME280;18335;51.486;7.562;2023-07-02T08:59:41;99594.16;;;20.84;100.00
31761;BME280;18335;51.486;7.562;2023-07-02T09:02:08;99602.00;;;21.66;100.00
31761;BME280;18335;51.486;7.562;2023-07-02T09:04:36;99595.38;;;21.50;100.00
31761;BME280;18335;51.486;7.562;2023-07-02T09:07:04;99596.47;;;21.32;100.00
31761;BME280;18335;51.486;7.562;2023-07-02T09:09:32;99591.38;;;21.13;100.00
31761;BME280;18335;51.486;7.562;2023-07-02T09:11:59;99604.69;;;21.27;100.00
31761;BME280;18335;51.486;7.562;2023-07-02T09:14:28;99611.31;;;20.30;100.00
31761;BME280;18335;51.486;7.562;2023-07-02T09:17:06;99605.53;;;20.71;100.00
31761;BME280;18335;51.486;7.562;2023-07-02T09:19:34;99602.97;;;20.70;100.00
31761;BME280;18335;51.486;7.562;2023-07-02T09:22:03;99608.31;;;21.00;100.00
31761;BME280;18335;51.486;7.562;2023-07-02T09:24:31;99600.81;;;21.45;100.00
31761;BME280;18335;51.486;7.562;2023-07-02T09:27:00;99605.13;;;22.02;100.00
31761;BME280;18335;51.486;7.562;2023-07-02T09:29:28;99600.22;;;22.10;100.00
31761;BME280;18335;51.486;7.562;2023-07-02T09:31:57;99599.13;;;22.11;100.00
31761;BME280;18335;51.486;7.562;2023-07-02T09:34:30;99604.22;;;21.97;100.00
31761;BME280;18335;51.486;7.562;2023-07-02T09:36:58;99605.81;;;21.76;97.43
31761;BME280;18335;51.486;7.562;2023-07-02T09:39:28;99596.47;;;21.49;97.54
31761;BME280;18335;51.486;7.562;2023-07-02T09:41:55;99611.63;;;21.91;100.00
31761;BME280;18335;51.486;7.562;2023-07-02T09:44:26;99612.38;;;22.03;94.54
31761;BME280;18335;51.486;7.562;2023-07-02T09:46:58;99602.84;;;21.99;91.64
31761;BME280;18335;51.486;7.562;2023-07-02T09:49:27;99612.69;;;22.45;95.50
31761;BME280;18335;51.486;7.562;2023-07-02T09:51:59;99618.00;;;22.09;94.59
31761;BME280;18335;51.486;7.562;2023-07-02T09:54:27;99626.16;;;21.98;93.10
31761;BME280;18335;51.486;7.562;2023-07-02T09:56:54;99622.25;;;22.16;93.93
31761;BME280;18335;51.486;7.562;2023-07-02T09:59:21;99616.41;;;21.79;91.38
31761;BME280;18335;51.486;7.562;2023-07-02T10:01:48;99620.19;;;21.73;92.51
31761;BME280;18335;51.486;7.562;2023-07-02T10:04:18;99618.16;;;22.19;93.38
31761;BME280;18335;51.486;7.562;2023-07-02T10:06:46;99603.13;;;22.20;89.39
31761;BME280;18335;51.486;7.562;2023-07-02T10:09:13;99618.31;;;22.12;89.04
31761;BME280;18335;51.486;7.562;2023-07-02T10:11:41;99612.94;;;21.72;91.34
31761;BME280;18335;51.486;7.562;2023-07-02T10:14:08;99615.13;;;21.87;92.57
31761;BME280;18335;51.486;7.562;2023-07-02T10:16:48;99616.84;;;22.26;93.95
31761;BME280;18335;51.486;7.562;2023-07-02T10:19:15;99621.75;;;22.19;91.58
31761;BME280;18335;51.486;7.562;2023-07-02T10:21:42;99615.78;;;22.11;91.90
31761;BME280;18335;51.486;7.562;2023-07-02T10:24:12;99612.69;;;22.45;88.85
31761;BME280;18335;51.486;7.562;2023-07-02T10:26:54;99601.88;;;22.92;86.53
31761;BME280;18335;51.486;7.562;2023-07-02T10:29:22;99600.34;;;23.60;86.42
31761;BME280;18335;51.486;7.562;2023-07-02T10:31:49;99595.94;;;23.69;84.45
31761;BME280;18335;51.486;7.562;2023-07-02T10:34:16;99599.78;;;23.58;84.31
31761;BME280;18335;51.486;7.562;2023-07-02T10:36:54;99605.88;;;23.01;90.29
31761;BME280;18335;51.486;7.562;2023-07-02T10:39:20;99607.72;;;22.69;93.69
31761;BME280;18335;51.486;7.562;2023-07-02T10:41:47;99616.16;;;22.36;95.21
31761;BME280;18335;51.486;7.562;2023-07-02T10:44:16;99616.81;;;22.04;98.43
31761;BME280;18335;51.486;7.562;2023-07-02T10:46:43;99626.59;;;22.45;96.42
31761;BME280;18335;51.486;7.562;2023-07-02T10:49:10;99617.72;;;22.48;95.19
31761;BME280;18335;51.486;7.562;2023-07-02T10:51:38;99615.28;;;21.80;97.71
31761;BME280;18335;51.486;7.562;2023-07-02T10:54:05;99615.47;;;22.67;98.24
31761;BME280;18335;51.486;7.562;2023-07-02T10:56:32;99613.75;;;22.23;99.75
31761;BME280;18335;51.486;7.562;2023-07-02T10:58:58;99622.13;;;22.44;97.24
31761;BME280;18335;51.486;7.562;2023-07-02T11:01:28;99626.28;;;22.64;94.67
31761;BME280;18335;51.486;7.562;2023-07-02T11:03:56;99619.44;;;22.71;97.72
31761;BME280;18335;51.486;7.562;2023-07-02T11:06:23;99618.47;;;22.44;95.72
31761;BME280;18335;51.486;7.562;2023-07-02T11:08:51;99616.06;;;22.09;97.18
31761;BME280;18335;51.486;7.562;2023-07-02T11:11:18;99618.50;;;22.05;95.88
31761;BME280;18335;51.486;7.562;2023-07-02T11:13:45;99633.25;;;21.56;98.54
31761;BME280;18335;51.486;7.562;2023-07-02T11:16:18;99632.72;;;21.92;100.00
31761;BME280;18335;51.486;7.562;2023-07-02T11:18:49;99636.34;;;21.76;98.78
31761;BME280;18335;51.486;7.562;2023-07-02T11:21:16;99632.88;;;21.69;99.51
31761;BME280;18335;51.486;7.562;2023-07-02T11:23:43;99636.75;;;22.01;97.57
31761;BME280;18335;51.486;7.562;2023-07-02T11:26:10;99637.00;;;22.17;94.92
31761;BME280;18335;51.486;7.562;2023-07-02T11:28:48;99632.34;;;22.82;91.44
31761;BME280;18335;51.486;7.562;2023-07-02T11:31:24;99646.00;;;23.32;85.67
31761;BME280;18335;51.486;7.562;2023-07-02T11:33:52;99633.72;;;23.28;83.48
31761;BME280;18335;51.486;7.562;2023-07-02T11:36:21;99635.63;;;23.49;82.35
